Time;durP1;ratioP1;P1;durP2;ratioP2;P2;SDS_P1;SDS_P2;PMS_P1;PMS_P2;Temp;Humidity;BMP_temperature;BMP_pressure;BME280_temperature;BME280_humidity;BME280_pressure;Samples;Min_cycle;Max_cycle;Signal;HPM_P1;HPM_P2
2023/09/16 00:00:33;;;;;;;7.97;6.00;;;15.80;99.90;;;;;;4990718;28;20038;-59
2023/09/16 00:02:59;;;;;;;10.90;7.00;;;15.80;99.90;;;;;;4991463;28;20018;-59
2023/09/16 00:05:25;;;;;;;14.48;6.65;;;15.80;99.90;;;;;;4990674;28;20031;-58
2023/09/16 00:07:50;;;;;;;10.52;6.50;;;15.80;99.90;;;;;;4989468;28;20034;-60
2023/09/16 00:10:16;;;;;;;8.48;6.50;;;15.90;99.90;;;;;;4986501;28;20504;-61
2023/09/16 00:12:41;;;;;;;14.73;6.95;;;15.90;99.90;;;;;;4989131;28;20054;-61
2023/09/16 00:15:07;;;;;;;9.73;6.63;;;15.90;99.90;;;;;;4986090;28;20146;-60
2023/09/16 00:17:33;;;;;;;15.13;7.38;;;15.80;99.90;;;;;;4988050;28;20110;-60
2023/09/16 00:19:59;;;;;;;9.73;6.57;;;15.90;99.90;;;;;;4988643;28;20084;-56
2023/09/16 00:22:24;;;;;;;13.80;7.05;;;15.80;99.90;;;;;;4986354;28;20497;-54
2023/09/16 00:24:51;;;;;;;13.10;7.25;;;15.80;99.90;;;;;;4986669;28;20432;-57
2023/09/16 00:27:17;;;;;;;11.25;6.68;;;15.80;99.90;;;;;;4987221;28;20030;-58
2023/09/16 00:29:43;;;;;;;17.92;7.22;;;15.80;99.90;;;;;;4991709;28;20038;-59
2023/09/16 00:32:09;;;;;;;13.57;6.88;;;15.80;99.90;;;;;;4991307;28;20092;-58
2023/09/16 00:34:35;;;;;;;12.75;7.03;;;15.80;99.90;;;;;;4985519;28;20101;-57
2023/09/16 00:37:01;;;;;;;10.82;7.00;;;15.80;99.90;;;;;;4987901;28;20058;-56
2023/09/16 00:39:26;;;;;;;15.32;7.97;;;15.80;99.90;;;;;;4990973;28;20473;-57
2023/09/16 00:41:52;;;;;;;15.77;7.80;;;15.80;99.90;;;;;;4985222;28;20030;-57
2023/09/16 00:44:18;;;;;;;17.65;7.70;;;15.80;99.90;;;;;;4990215;28;20436;-57
2023/09/16 00:46:43;;;;;;;12.57;6.78;;;15.80;99.90;;;;;;4988225;28;20113;-60
2023/09/16 00:49:09;;;;;;;9.75;6.80;;;15.80;99.90;;;;;;4987704;28;20117;-59
2023/09/16 00:51:35;;;;;;;9.98;6.20;;;15.80;99.90;;;;;;4991907;28;20097;-58
2023/09/16 00:54:02;;;;;;;9.52;5.78;;;15.80;99.90;;;;;;4989767;28;20033;-57
2023/09/16 00:56:29;;;;;;;10.52;5.82;;;15.80;99.90;;;;;;4986399;28;20455;-58
2023/09/16 00:58:58;;;;;;;11.68;6.68;;;15.80;99.90;;;;;;4988798;28;20511;-60
2023/09/16 01:01:24;;;;;;;11.73;6.55;;;15.70;99.90;;;;;;4986894;28;20022;-57
2023/09/16 01:03:51;;;;;;;11.27;6.13;;;15.80;99.90;;;;;;4988954;28;20039;-59
2023/09/16 01:06:18;;;;;;;10.45;5.97;;;15.70;99.90;;;;;;4986849;28;20029;-56
2023/09/16 01:08:44;;;;;;;9.98;6.22;;;15.70;99.90;;;;;;4989131;28;20046;-59
2023/09/16 01:11:10;;;;;;;9.30;6.28;;;15.60;99.90;;;;;;4985654;28;20113;-59
2023/09/16 01:13:37;;;;;;;12.88;6.35;;;15.60;99.90;;;;;;4987300;28;20034;-59
2023/09/16 01:16:43;;;;;;;8.70;6.25;;;15.50;99.90;;;;;;4981500;28;20045;-58
2023/09/16 01:19:28;;;;;;;8.65;5.85;;;15.50;99.90;;;;;;4991128;28;20459;-60
2023/09/16 01:21:54;;;;;;;10.25;6.15;;;15.40;99.90;;;;;;4985386;28;20026;-60
2023/09/16 01:24:24;;;;;;;9.40;6.00;;;15.40;99.90;;;;;;4985233;28;20428;-58
2023/09/16 01:26:50;;;;;;;10.52;5.93;;;15.40;99.90;;;;;;4987262;28;20036;-60
2023/09/16 01:29:18;;;;;;;11.98;6.05;;;15.50;99.90;;;;;;4987875;28;20105;-58
2023/09/16 01:31:44;;;;;;;10.18;5.88;;;15.50;99.90;;;;;;4989714;28;20038;-61
2023/09/16 01:34:27;;;;;;;8.95;5.25;;;15.40;99.90;;;;;;4985432;28;20026;-60
2023/09/16 01:36:56;;;;;;;10.05;6.22;;;15.50;99.90;;;;;;4989265;28;20382;-59
2023/09/16 01:39:23;;;;;;;9.32;5.50;;;15.50;99.90;;;;;;4987495;28;20203;-58
2023/09/16 01:41:53;;;;;;;6.72;5.28;;;15.50;99.90;;;;;;4989920;28;20030;-58
2023/09/16 01:44:18;;;;;;;11.40;5.78;;;15.50;99.90;;;;;;4990716;28;20104;-53
2023/09/16 01:46:44;;;;;;;11.20;5.38;;;15.50;99.90;;;;;;4989506;28;20432;-60
2023/09/16 01:49:10;;;;;;;10.07;5.97;;;15.50;99.90;;;;;;4990428;28;20085;-61
2023/09/16 01:51:35;;;;;;;9.95;5.10;;;15.50;99.90;;;;;;4987430;28;20036;-60
2023/09/16 01:54:01;;;;;;;12.80;5.05;;;15.40;99.90;;;;;;4986333;28;20521;-61
2023/09/16 01:56:26;;;;;;;8.65;5.60;;;15.40;99.90;;;;;;4980851;28;20954;-60
2023/09/16 01:58:52;;;;;;;11.07;5.82;;;15.40;99.90;;;;;;4987489;28;20398;-58
2023/09/16 02:01:17;;;;;;;9.77;5.55;;;15.40;99.90;;;;;;4989380;28;20035;-60
2023/09/16 02:03:43;;;;;;;8.10;5.15;;;15.30;99.90;;;;;;4989148;28;20049;-61
2023/09/16 02:06:09;;;;;;;11.70;5.60;;;15.30;99.90;;;;;;4988177;28;20031;-59
2023/09/16 02:08:34;;;;;;;10.73;5.65;;;15.20;99.90;;;;;;4986967;28;20034;-59
2023/09/16 02:11:00;;;;;;;8.32;5.10;;;15.20;99.90;;;;;;4986081;28;20510;-60
2023/09/16 02:13:26;;;;;;;13.10;5.28;;;15.10;99.90;;;;;;4987511;28;20499;-56
2023/09/16 02:15:51;;;;;;;8.27;5.63;;;15.10;99.90;;;;;;4985188;28;20029;-57
2023/09/16 02:18:17;;;;;;;8.02;5.22;;;15.10;99.90;;;;;;4989716;28;20030;-59
2023/09/16 02:20:43;;;;;;;9.18;5.70;;;15.10;99.90;;;;;;4987667;28;20483;-58
2023/09/16 02:23:08;;;;;;;11.20;5.22;;;15.10;99.90;;;;;;4989327;28;20113;-58
2023/09/16 02:25:34;;;;;;;8.48;5.75;;;15.00;99.90;;;;;;4988594;28;20061;-60
2023/09/16 02:28:00;;;;;;;11.80;5.65;;;15.00;99.90;;;;;;4987135;28;20035;-55
2023/09/16 02:30:26;;;;;;;10.98;5.70;;;15.00;99.90;;;;;;4983701;28;20038;-57
2023/09/16 02:32:52;;;;;;;13.32;6.38;;;15.00;99.90;;;;;;4989658;28;20030;-59
2023/09/16 02:35:17;;;;;;;8.70;5.88;;;15.00;99.90;;;;;;4988585;28;20035;-58
2023/09/16 02:37:43;;;;;;;10.38;6.18;;;14.90;99.90;;;;;;4988594;28;20106;-60
2023/09/16 02:40:09;;;;;;;10.13;5.70;;;14.90;99.90;;;;;;4987637;28;20041;-58
2023/09/16 02:42:34;;;;;;;10.10;5.97;;;14.90;99.90;;;;;;4986617;28;20089;-59
2023/09/16 02:45:01;;;;;;;9.27;5.75;;;14.90;99.90;;;;;;4988678;28;20034;-57
2023/09/16 02:47:26;;;;;;;8.93;5.43;;;14.90;99.90;;;;;;4989169;28;20040;-57
2023/09/16 02:49:52;;;;;;;12.25;5.65;;;14.90;99.90;;;;;;4989226;28;20034;-61
2023/09/16 02:52:18;;;;;;;9.55;6.03;;;14.90;99.90;;;;;;4988131;28;20492;-56
2023/09/16 02:54:44;;;;;;;13.32;6.88;;;14.90;99.90;;;;;;4987314;28;20018;-59
2023/09/16 02:57:09;;;;;;;14.38;8.20;;;14.80;99.90;;;;;;4988515;28;20049;-55
2023/09/16 02:59:35;;;;;;;15.15;8.70;;;14.90;99.90;;;;;;4989200;28;20027;-57
2023/09/16 03:02:00;;;;;;;11.55;7.30;;;14.90;99.90;;;;;;4989165;28;20089;-56
2023/09/16 03:04:26;;;;;;;11.40;6.68;;;14.80;99.90;;;;;;4989223;28;20042;-54
2023/09/16 03:06:52;;;;;;;11.30;5.75;;;14.80;99.90;;;;;;4988620;28;20033;-54
2023/09/16 03:09:19;;;;;;;17.27;6.13;;;14.70;99.90;;;;;;4985316;28;20042;-55
2023/09/16 03:11:45;;;;;;;9.07;5.55;;;14.70;99.90;;;;;;4988149;28;20035;-59
2023/09/16 03:14:10;;;;;;;10.63;6.18;;;14.60;99.90;;;;;;4988580;28;20027;-57
2023/09/16 03:16:36;;;;;;;11.45;6.13;;;14.60;99.90;;;;;;4987488;28;20037;-57
2023/09/16 03:19:03;;;;;;;12.63;5.75;;;14.60;99.90;;;;;;4985986;28;20083;-61
2023/09/16 03:21:29;;;;;;;9.60;5.55;;;14.60;99.90;;;;;;4985833;28;20389;-59
2023/09/16 03:23:54;;;;;;;8.25;5.78;;;14.60;99.90;;;;;;4984420;28;20034;-59
2023/09/16 03:26:20;;;;;;;13.63;6.00;;;14.50;99.90;;;;;;4989856;28;20041;-56
2023/09/16 03:28:46;;;;;;;13.63;7.30;;;14.50;99.90;;;;;;4992479;28;20076;-59
2023/09/16 03:31:12;;;;;;;15.57;7.40;;;14.50;99.90;;;;;;4991248;28;20034;-58
2023/09/16 03:33:38;;;;;;;13.13;7.70;;;14.50;99.90;;;;;;4991759;28;20065;-58
2023/09/16 03:36:04;;;;;;;14.18;6.93;;;14.50;99.90;;;;;;4987564;28;20393;-55
2023/09/16 03:38:31;;;;;;;14.63;6.85;;;14.50;99.90;;;;;;4991792;28;20034;-59
2023/09/16 03:40:58;;;;;;;10.75;6.80;;;14.50;99.90;;;;;;4985621;28;20113;-60
2023/09/16 03:43:24;;;;;;;13.52;7.00;;;14.40;99.90;;;;;;4993168;28;20085;-59
2023/09/16 03:45:49;;;;;;;12.68;6.93;;;14.50;99.90;;;;;;4992558;28;20027;-56
2023/09/16 03:48:15;;;;;;;10.10;6.05;;;14.40;99.90;;;;;;4990923;28;20509;-55
2023/09/16 03:50:41;;;;;;;11.32;6.35;;;14.50;99.90;;;;;;4990479;28;20033;-57
2023/09/16 03:53:06;;;;;;;14.60;6.57;;;14.50;99.90;;;;;;4993053;28;20035;-56
2023/09/16 03:55:32;;;;;;;14.10;6.60;;;14.50;99.90;;;;;;4987398;28;20041;-57
2023/09/16 03:58:00;;;;;;;10.30;6.57;;;14.50;99.90;;;;;;4992198;28;20014;-57
2023/09/16 04:00:26;;;;;;;12.95;6.78;;;14.50;99.90;;;;;;4991965;28;20038;-59
2023/09/16 04:02:51;;;;;;;10.63;6.30;;;14.40;99.90;;;;;;4986870;28;20089;-60
2023/09/16 04:05:17;;;;;;;11.32;6.22;;;14.40;99.90;;;;;;4985967;28;20026;-60
2023/09/16 04:07:42;;;;;;;10.13;6.80;;;14.40;99.90;;;;;;4988960;28;20034;-59
2023/09/16 04:10:08;;;;;;;13.73;7.65;;;14.40;99.90;;;;;;4988520;28;20034;-60
2023/09/16 04:12:34;;;;;;;10.00;6.15;;;14.50;99.90;;;;;;4987674;28;20114;-58
2023/09/16 04:14:59;;;;;;;12.27;6.63;;;14.40;99.90;;;;;;4992940;28;20133;-58
2023/09/16 04:17:26;;;;;;;15.23;7.32;;;14.40;99.90;;;;;;4993015;28;20037;-56
2023/09/16 04:19:51;;;;;;;15.75;7.40;;;14.40;99.90;;;;;;4993065;28;20073;-58
2023/09/16 04:22:17;;;;;;;8.55;6.38;;;14.40;99.90;;;;;;4992022;28;20022;-59
2023/09/16 04:24:42;;;;;;;11.45;6.95;;;14.40;99.90;;;;;;4989970;28;20480;-57
2023/09/16 04:27:08;;;;;;;10.70;7.00;;;14.40;99.90;;;;;;4990598;28;20480;-58
2023/09/16 04:29:33;;;;;;;12.68;7.15;;;14.40;99.90;;;;;;4990303;28;20023;-60
2023/09/16 04:31:59;;;;;;;11.85;6.93;;;14.40;99.90;;;;;;4988188;28;20018;-56
2023/09/16 04:34:24;;;;;;;15.65;7.32;;;14.40;99.90;;;;;;4990609;28;20412;-58
2023/09/16 04:36:50;;;;;;;13.05;6.93;;;14.40;99.90;;;;;;4985805;28;20477;-59
2023/09/16 04:39:17;;;;;;;11.15;6.60;;;14.30;99.90;;;;;;4986817;28;20026;-58
2023/09/16 04:41:42;;;;;;;11.90;6.68;;;14.40;99.90;;;;;;4985592;28;20114;-58
2023/09/16 04:44:10;;;;;;;13.68;6.95;;;14.40;99.90;;;;;;4993401;28;20034;-54
2023/09/16 04:46:36;;;;;;;10.65;7.28;;;14.40;99.90;;;;;;4989560;28;20472;-57
2023/09/16 04:49:02;;;;;;;14.43;7.43;;;14.40;99.90;;;;;;4990163;28;20030;-58
2023/09/16 04:51:27;;;;;;;11.32;6.60;;;14.30;99.90;;;;;;4985095;28;20096;-59
2023/09/16 04:53:56;;;;;;;11.75;6.63;;;14.30;99.90;;;;;;4990046;28;20045;-59
2023/09/16 04:56:22;;;;;;;12.20;6.50;;;14.30;99.90;;;;;;4989006;28;20084;-59
2023/09/16 04:58:49;;;;;;;11.20;7.28;;;14.30;99.90;;;;;;4988110;28;20034;-59
2023/09/16 05:01:15;;;;;;;16.17;7.65;;;14.30;99.90;;;;;;4986060;28;20033;-59
2023/09/16 05:03:40;;;;;;;11.98;7.13;;;14.30;99.90;;;;;;4988806;28;20046;-58
2023/09/16 05:06:06;;;;;;;14.80;6.60;;;14.40;99.90;;;;;;4989116;28;20037;-56
2023/09/16 05:08:31;;;;;;;12.88;6.80;;;14.40;99.90;;;;;;4986990;28;20076;-60
2023/09/16 05:10:57;;;;;;;15.45;7.20;;;14.40;99.90;;;;;;4983817;28;20118;-55
2023/09/16 05:13:23;;;;;;;12.32;7.18;;;14.40;99.90;;;;;;4987418;28;20022;-55
2023/09/16 05:15:50;;;;;;;11.20;6.88;;;14.40;99.90;;;;;;4994862;28;20022;-57
2023/09/16 05:18:15;;;;;;;12.05;6.75;;;14.40;99.90;;;;;;4988295;28;20041;-56
2023/09/16 05:20:41;;;;;;;10.70;7.18;;;14.40;99.90;;;;;;4988286;28;20026;-58
2023/09/16 05:23:07;;;;;;;10.48;6.80;;;14.50;99.90;;;;;;4988741;28;20041;-59
2023/09/16 05:25:32;;;;;;;10.18;6.20;;;14.40;99.90;;;;;;4982041;28;20496;-59
2023/09/16 05:27:58;;;;;;;12.23;7.00;;;14.40;99.90;;;;;;4991536;28;20101;-59
2023/09/16 05:30:23;;;;;;;10.05;6.95;;;14.40;99.90;;;;;;4992040;28;20046;-59
2023/09/16 05:32:49;;;;;;;9.07;6.18;;;14.40;99.90;;;;;;4988129;28;20030;-57
2023/09/16 05:35:14;;;;;;;9.98;6.40;;;14.40;99.90;;;;;;4985195;28;20030;-58
2023/09/16 05:37:40;;;;;;;10.82;5.82;;;14.50;99.90;;;;;;4989941;28;20025;-59
2023/09/16 05:40:06;;;;;;;8.95;6.47;;;14.50;99.90;;;;;;4987896;28;20026;-59
2023/09/16 05:42:32;;;;;;;9.38;6.40;;;14.50;99.90;;;;;;4987927;28;20027;-60
2023/09/16 05:45:00;;;;;;;14.60;7.32;;;14.60;99.90;;;;;;4992506;28;20093;-60
2023/09/16 05:47:29;;;;;;;12.43;6.10;;;14.60;99.90;;;;;;4987168;28;20026;-57
2023/09/16 05:49:54;;;;;;;11.02;6.30;;;14.60;99.90;;;;;;4982987;28;20030;-59
2023/09/16 05:52:20;;;;;;;8.80;6.32;;;14.60;99.90;;;;;;4988550;28;20085;-58
2023/09/16 05:54:46;;;;;;;12.35;7.05;;;14.60;99.90;;;;;;4983262;28;20104;-58
2023/09/16 05:57:12;;;;;;;13.57;7.50;;;14.70;99.90;;;;;;4984745;28;20109;-57
2023/09/16 05:59:37;;;;;;;11.50;6.82;;;14.70;99.90;;;;;;4982886;28;20031;-57
2023/09/16 06:02:03;;;;;;;10.90;7.18;;;14.80;99.90;;;;;;4988242;28;20101;-57
2023/09/16 06:04:30;;;;;;;8.85;6.07;;;14.80;99.90;;;;;;4982092;28;20030;-59
2023/09/16 06:06:55;;;;;;;9.52;6.53;;;14.70;99.90;;;;;;4985412;28;20516;-58
2023/09/16 06:09:21;;;;;;;11.30;7.47;;;14.80;99.90;;;;;;4984052;28;20030;-60
2023/09/16 06:11:47;;;;;;;9.32;6.32;;;14.80;99.90;;;;;;4988864;28;20044;-60
2023/09/16 06:14:12;;;;;;;8.73;6.32;;;14.80;99.90;;;;;;4989596;28;20068;-59
2023/09/16 06:16:38;;;;;;;10.73;7.00;;;14.90;99.90;;;;;;4986030;28;20046;-58
2023/09/16 06:19:03;;;;;;;8.90;6.25;;;14.90;99.90;;;;;;4984842;28;20034;-56
2023/09/16 06:21:30;;;;;;;10.75;7.00;;;14.90;99.90;;;;;;4986732;28;20109;-55
2023/09/16 06:23:56;;;;;;;10.60;6.47;;;14.90;99.90;;;;;;4986457;28;20027;-59
2023/09/16 06:26:21;;;;;;;11.25;6.70;;;15.00;99.90;;;;;;4987314;28;20030;-58
2023/09/16 06:28:47;;;;;;;13.52;6.65;;;15.00;99.90;;;;;;4988629;28;20476;-57
2023/09/16 06:31:12;;;;;;;9.35;6.53;;;15.10;99.90;;;;;;4990004;28;20038;-57
2023/09/16 06:33:38;;;;;;;10.93;6.45;;;15.10;99.90;;;;;;4986157;28;20027;-59
2023/09/16 06:36:04;;;;;;;10.25;6.78;;;15.20;99.90;;;;;;4988036;28;20037;-58
2023/09/16 06:38:29;;;;;;;10.55;7.30;;;15.20;99.90;;;;;;4988803;28;20065;-58
2023/09/16 06:40:55;;;;;;;7.93;5.63;;;15.30;99.90;;;;;;4984968;28;20037;-58
2023/09/16 06:43:21;;;;;;;8.23;5.80;;;15.40;99.90;;;;;;4987096;28;20033;-58
2023/09/16 06:45:49;;;;;;;16.83;5.97;;;15.50;99.90;;;;;;4987282;28;20019;-60
2023/09/16 06:48:15;;;;;;;8.52;5.90;;;15.50;99.90;;;;;;4985521;28;20026;-60
2023/09/16 06:50:40;;;;;;;11.70;5.93;;;15.60;99.90;;;;;;4987024;28;20033;-59
2023/09/16 06:53:06;;;;;;;9.88;5.47;;;15.70;99.90;;;;;;4985084;28;20030;-58
2023/09/16 06:55:31;;;;;;;7.47;5.88;;;15.70;99.90;;;;;;4987051;28;20031;-58
2023/09/16 06:57:57;;;;;;;8.48;5.32;;;15.80;99.90;;;;;;4989629;28;20033;-58
2023/09/16 07:00:22;;;;;;;8.35;5.55;;;15.80;99.90;;;;;;4989717;28;20019;-58
2023/09/16 07:02:48;;;;;;;9.48;5.47;;;16.00;99.90;;;;;;4993109;28;20030;-53
2023/09/16 07:05:13;;;;;;;8.63;5.75;;;16.00;99.90;;;;;;4990608;28;20030;-56
2023/09/16 07:07:41;;;;;;;8.73;5.50;;;16.10;99.90;;;;;;4984519;28;20065;-60
2023/09/16 07:10:07;;;;;;;8.10;4.97;;;16.20;99.90;;;;;;4985854;28;20093;-55
2023/09/16 07:12:32;;;;;;;9.88;5.13;;;16.30;99.90;;;;;;4991290;28;20030;-60
2023/09/16 07:14:58;;;;;;;12.13;5.10;;;16.30;99.90;;;;;;4990604;28;20038;-58
2023/09/16 07:17:23;;;;;;;6.45;4.60;;;16.40;99.90;;;;;;4989424;28;20034;-55
2023/09/16 07:19:49;;;;;;;9.95;4.93;;;16.50;99.90;;;;;;4985166;28;20114;-55
2023/09/16 07:22:14;;;;;;;12.55;7.43;;;16.60;99.90;;;;;;4982117;28;20088;-57
2023/09/16 07:24:40;;;;;;;7.55;5.03;;;16.60;99.90;;;;;;4984592;28;20025;-60
2023/09/16 07:27:06;;;;;;;8.13;4.80;;;16.70;99.90;;;;;;4993003;28;20049;-59
2023/09/16 07:29:31;;;;;;;9.23;5.75;;;16.80;99.90;;;;;;4991154;28;20046;-58
2023/09/16 07:31:57;;;;;;;8.55;5.22;;;16.90;99.90;;;;;;4989381;28;20507;-59
2023/09/16 07:34:22;;;;;;;11.95;5.50;;;17.00;99.90;;;;;;4985096;28;20030;-58
2023/09/16 07:36:49;;;;;;;8.43;4.70;;;17.20;99.90;;;;;;4991058;28;20022;-61
2023/09/16 07:39:14;;;;;;;7.63;4.78;;;17.20;99.90;;;;;;4987227;28;20425;-59
2023/09/16 07:41:41;;;;;;;8.95;4.72;;;17.20;99.90;;;;;;4992558;28;20088;-57
2023/09/16 07:44:06;;;;;;;14.30;4.82;;;17.30;99.90;;;;;;4988323;28;20038;-59
2023/09/16 07:46:32;;;;;;;10.07;5.13;;;17.30;99.90;;;;;;4993464;28;20034;-59
2023/09/16 07:48:57;;;;;;;9.00;5.40;;;17.50;99.90;;;;;;4981717;28;20515;-59
2023/09/16 07:51:23;;;;;;;10.50;5.13;;;17.50;99.90;;;;;;4989737;28;20524;-58
2023/09/16 07:53:48;;;;;;;10.25;4.97;;;17.60;99.90;;;;;;4988600;28;20031;-61
2023/09/16 07:56:18;;;;;;;8.65;5.15;;;17.60;99.90;;;;;;4988469;28;20019;-58
2023/09/16 07:58:43;;;;;;;9.63;4.63;;;17.70;99.90;;;;;;4989080;28;20026;-58
2023/09/16 08:01:09;;;;;;;9.63;4.97;;;17.70;99.90;;;;;;4990479;28;20045;-57
2023/09/16 08:03:37;;;;;;;8.75;5.32;;;17.70;99.90;;;;;;4989090;28;20133;-60
2023/09/16 08:06:03;;;;;;;6.97;5.10;;;17.80;99.90;;;;;;4988046;28;20392;-62
2023/09/16 08:08:29;;;;;;;9.45;4.82;;;17.90;99.90;;;;;;4985304;28;20030;-59
2023/09/16 08:10:55;;;;;;;7.10;5.22;;;18.00;99.90;;;;;;4989977;28;20567;-57
2023/09/16 08:13:20;;;;;;;8.05;5.18;;;18.00;99.90;;;;;;4988722;28;20037;-60
2023/09/16 08:15:46;;;;;;;8.20;5.38;;;18.10;99.90;;;;;;4984825;28;20026;-60
2023/09/16 08:18:12;;;;;;;12.07;5.45;;;18.30;99.90;;;;;;4990158;28;20041;-57
2023/09/16 08:20:37;;;;;;;10.90;4.78;;;18.30;99.90;;;;;;4983954;28;20026;-60
2023/09/16 08:23:03;;;;;;;5.95;4.63;;;18.50;99.90;;;;;;4988525;28;20098;-58
2023/09/16 08:25:28;;;;;;;8.07;4.40;;;18.60;99.90;;;;;;4983424;28;20043;-60
2023/09/16 08:27:54;;;;;;;6.03;4.90;;;18.70;99.90;;;;;;4991203;28;20027;-60
2023/09/16 08:30:21;;;;;;;5.30;3.97;;;18.80;99.90;;;;;;4997132;28;20034;-60
2023/09/16 08:32:47;;;;;;;7.93;5.07;;;18.90;99.90;;;;;;4986278;28;20031;-60
2023/09/16 08:35:13;;;;;;;5.38;4.63;;;19.00;99.90;;;;;;4999761;28;20500;-58
2023/09/16 08:37:38;;;;;;;7.88;4.45;;;19.20;99.90;;;;;;4991201;28;20058;-60
2023/09/16 08:40:04;;;;;;;7.15;4.60;;;19.30;99.90;;;;;;4990713;28;20021;-59
2023/09/16 08:42:37;;;;;;;8.02;4.78;;;19.30;99.90;;;;;;4989162;28;20436;-55
2023/09/16 08:45:05;;;;;;;7.30;4.70;;;19.40;99.90;;;;;;4988603;28;20374;-56
2023/09/16 08:47:39;;;;;;;8.00;4.03;;;19.50;99.90;;;;;;4990200;28;20063;-60
2023/09/16 08:50:07;;;;;;;5.05;3.92;;;19.70;99.90;;;;;;4993891;28;20027;-57
2023/09/16 08:52:53;;;;;;;14.55;5.20;;;19.70;99.90;;;;;;4990802;28;20065;-54
2023/09/16 08:55:20;;;;;;;10.57;4.70;;;19.90;99.90;;;;;;4985050;28;20072;-51
2023/09/16 08:58:00;;;;;;;12.27;6.18;;;20.10;99.90;;;;;;4989660;28;20044;-57
2023/09/16 09:00:26;;;;;;;10.88;5.80;;;20.20;99.90;;;;;;4985022;28;20066;-56
2023/09/16 09:02:52;;;;;;;10.38;5.95;;;20.40;99.90;;;;;;4993934;28;20081;-57
2023/09/16 09:05:20;;;;;;;8.00;5.13;;;20.50;99.90;;;;;;4993289;28;20030;-58
2023/09/16 09:07:45;;;;;;;8.98;5.88;;;20.60;99.90;;;;;;4988589;28;20049;-58
2023/09/16 09:10:12;;;;;;;8.75;5.10;;;20.70;99.90;;;;;;4985241;28;20034;-56
2023/09/16 09:12:39;;;;;;;7.75;5.25;;;20.80;99.90;;;;;;4983197;28;20152;-56
2023/09/16 09:15:10;;;;;;;7.25;5.18;;;20.90;99.90;;;;;;4991151;28;20089;-58
2023/09/16 09:17:38;;;;;;;7.68;5.32;;;21.00;99.90;;;;;;4986637;28;20026;-57
2023/09/16 09:20:07;;;;;;;8.77;5.10;;;21.10;99.90;;;;;;4988249;28;20073;-56
2023/09/16 09:22:36;;;;;;;9.07;5.43;;;21.20;99.90;;;;;;4984695;28;20039;-57
2023/09/16 09:25:01;;;;;;;11.65;5.30;;;21.30;99.90;;;;;;4978417;28;20105;-59
2023/09/16 09:27:28;;;;;;;6.63;5.15;;;21.40;99.90;;;;;;4982891;28;20500;-59
2023/09/16 09:29:54;;;;;;;9.32;4.85;;;21.50;99.90;;;;;;4988764;28;20026;-56
2023/09/16 09:32:21;;;;;;;6.53;4.95;;;21.60;99.90;;;;;;4986670;28;20485;-55
2023/09/16 09:34:46;;;;;;;13.63;5.03;;;21.80;99.90;;;;;;4986531;28;20038;-52
2023/09/16 09:37:19;;;;;;;7.45;5.40;;;21.90;99.90;;;;;;4988062;28;20041;-59
2023/09/16 09:39:45;;;;;;;9.85;4.68;;;22.00;99.90;;;;;;4988055;28;20500;-56
2023/09/16 09:42:19;;;;;;;8.45;5.15;;;22.10;99.90;;;;;;4989566;28;20552;-53
2023/09/16 09:44:45;;;;;;;6.40;4.22;;;22.20;99.90;;;;;;4987520;28;20088;-57
2023/09/16 09:47:12;;;;;;;11.30;5.13;;;22.40;99.90;;;;;;4987858;28;20116;-58
2023/09/16 09:49:38;;;;;;;10.93;5.50;;;22.40;99.90;;;;;;4987538;28;20439;-58
2023/09/16 09:52:05;;;;;;;6.45;4.53;;;22.50;99.90;;;;;;4980953;28;20046;-60
2023/09/16 09:54:30;;;;;;;6.82;4.85;;;22.70;99.90;;;;;;4987193;28;20038;-58
2023/09/16 09:56:56;;;;;;;5.80;4.90;;;22.90;99.90;;;;;;4989798;28;20022;-59
2023/09/16 09:59:22;;;;;;;5.70;4.60;;;23.00;99.90;;;;;;4987488;28;20022;-59
2023/09/16 10:01:48;;;;;;;5.55;4.57;;;23.30;99.90;;;;;;4988098;28;20031;-58
2023/09/16 10:04:13;;;;;;;6.20;4.72;;;23.50;99.90;;;;;;4989308;28;20511;-58
2023/09/16 10:06:39;;;;;;;8.60;5.30;;;23.50;99.90;;;;;;4986245;28;20026;-56
2023/09/16 10:09:05;;;;;;;6.47;4.25;;;23.60;99.90;;;;;;4984604;28;20161;-58
2023/09/16 10:11:32;;;;;;;7.70;4.30;;;23.80;99.90;;;;;;4984953;28;20033;-55
2023/09/16 10:13:59;;;;;;;8.15;4.82;;;24.00;99.90;;;;;;4983767;28;20030;-60
2023/09/16 10:16:25;;;;;;;12.38;5.20;;;24.20;99.90;;;;;;4985352;28;20527;-60
2023/09/16 10:18:51;;;;;;;7.57;4.70;;;24.40;99.90;;;;;;4986138;28;20117;-57
2023/09/16 10:21:18;;;;;;;6.78;4.90;;;24.70;99.90;;;;;;4986409;28;20725;-57
2023/09/16 10:23:46;;;;;;;6.40;4.72;;;24.90;99.90;;;;;;4985775;28;20029;-60
2023/09/16 10:26:12;;;;;;;12.55;4.90;;;24.90;99.90;;;;;;4983822;28;20034;-61
2023/09/16 10:28:46;;;;;;;9.48;4.70;;;25.00;99.90;;;;;;4987225;28;20181;-58
2023/09/16 10:31:12;;;;;;;12.07;5.60;;;25.20;99.90;;;;;;4983768;28;20039;-61
2023/09/16 10:33:40;;;;;;;8.05;4.90;;;25.00;99.90;;;;;;4987142;28;20031;-62
2023/09/16 10:36:07;;;;;;;9.93;5.57;;;25.10;99.90;;;;;;4988768;28;20647;-57
2023/09/16 10:38:34;;;;;;;7.68;4.90;;;25.20;99.90;;;;;;4987717;28;20455;-58
2023/09/16 10:41:00;;;;;;;6.78;4.85;;;25.30;99.90;;;;;;4989044;28;20026;-57
2023/09/16 10:43:25;;;;;;;9.90;5.30;;;25.50;99.90;;;;;;4993870;28;20416;-58
2023/09/16 10:45:52;;;;;;;9.30;5.05;;;25.40;99.90;;;;;;4989504;28;20118;-58
2023/09/16 10:48:17;;;;;;;7.80;5.30;;;25.50;99.90;;;;;;4989744;28;20041;-60
2023/09/16 10:50:44;;;;;;;9.65;4.90;;;25.70;99.90;;;;;;4990794;28;20034;-61
2023/09/16 10:53:21;;;;;;;7.03;4.60;;;25.70;99.90;;;;;;4989827;28;20030;-61
2023/09/16 10:55:50;;;;;;;13.25;5.13;;;25.90;99.90;;;;;;4986404;28;20128;-60
2023/09/16 10:58:21;;;;;;;9.05;5.13;;;25.60;99.90;;;;;;4987879;28;20030;-58
2023/09/16 11:00:58;;;;;;;9.00;4.75;;;25.80;99.90;;;;;;4989211;28;20533;-60
2023/09/16 11:03:30;;;;;;;7.32;5.45;;;25.90;99.90;;;;;;4986325;28;20106;-60
2023/09/16 11:05:58;;;;;;;8.32;4.93;;;25.90;99.90;;;;;;4983807;28;20039;-60
2023/09/16 11:08:25;;;;;;;8.00;4.75;;;26.10;99.90;;;;;;4988881;28;20086;-60
2023/09/16 11:10:52;;;;;;;14.50;4.82;;;26.20;99.90;;;;;;4987038;28;20041;-61
2023/09/16 11:13:19;;;;;;;6.45;4.90;;;26.30;99.90;;;;;;4986689;28;20035;-61
2023/09/16 11:15:46;;;;;;;10.93;5.35;;;26.30;99.90;;;;;;4984274;28;20271;-57
2023/09/16 11:18:16;;;;;;;8.95;5.28;;;26.50;99.90;;;;;;4988456;28;20327;-59
2023/09/16 11:20:41;;;;;;;6.80;5.30;;;26.50;99.90;;;;;;4988413;28;20476;-60
2023/09/16 11:23:09;;;;;;;7.15;5.25;;;26.60;99.90;;;;;;4991407;28;20109;-61
2023/09/16 11:25:40;;;;;;;6.70;5.20;;;26.90;99.90;;;;;;4987167;28;20424;-57
2023/09/16 11:28:12;;;;;;;7.88;4.70;;;26.90;99.90;;;;;;4991855;28;20065;-54
2023/09/16 11:30:38;;;;;;;7.85;4.78;;;27.30;99.90;;;;;;4983152;28;20042;-56
2023/09/16 11:33:08;;;;;;;8.65;4.90;;;27.30;99.90;;;;;;4986205;28;20026;-55
2023/09/16 11:35:38;;;;;;;6.82;5.05;;;27.50;99.90;;;;;;4985944;28;20037;-52
2023/09/16 11:38:04;;;;;;;7.28;4.53;;;27.50;99.90;;;;;;4987956;28;20045;-56
2023/09/16 11:40:32;;;;;;;6.03;4.88;;;27.90;99.90;;;;;;4986482;28;20480;-59
2023/09/16 11:42:58;;;;;;;6.47;4.50;;;28.20;99.90;;;;;;4989453;28;20432;-58
2023/09/16 11:45:24;;;;;;;7.82;4.40;;;28.20;99.90;;;;;;4985431;28;20567;-60
2023/09/16 11:47:51;;;;;;;10.40;4.88;;;28.10;99.90;;;;;;4990633;28;20460;-57
2023/09/16 11:50:26;;;;;;;11.63;5.38;;;27.90;99.90;;;;;;4988590;28;20451;-57
2023/09/16 11:52:52;;;;;;;7.03;4.07;;;27.90;99.90;;;;;;4984956;28;20057;-60
2023/09/16 11:55:19;;;;;;;6.22;4.35;;;28.10;99.90;;;;;;4986529;28;20686;-61
2023/09/16 11:57:48;;;;;;;6.68;4.63;;;28.30;99.90;;;;;;4985753;28;20109;-56
2023/09/16 12:00:15;;;;;;;6.78;4.90;;;28.70;99.90;;;;;;4986244;28;20406;-58
2023/09/16 12:02:41;;;;;;;8.18;4.55;;;28.50;99.90;;;;;;4988168;28;20060;-56
2023/09/16 12:05:09;;;;;;;6.13;4.88;;;28.40;99.90;;;;;;4989881;28;20085;-57
2023/09/16 12:07:35;;;;;;;5.50;4.72;;;28.70;99.90;;;;;;4986315;28;20030;-58
2023/09/16 12:10:05;;;;;;;6.57;4.18;;;28.70;99.90;;;;;;4991645;28;20085;-60
2023/09/16 12:12:31;;;;;;;8.55;4.57;;;28.60;99.90;;;;;;4987933;28;20030;-60
2023/09/16 12:14:59;;;;;;;7.78;4.68;;;28.70;99.90;;;;;;4989178;28;20092;-59
2023/09/16 12:17:25;;;;;;;6.70;4.60;;;28.60;99.90;;;;;;4988281;28;20018;-60
2023/09/16 12:19:53;;;;;;;7.00;5.03;;;28.70;99.90;;;;;;4990667;28;20024;-58
2023/09/16 12:22:19;;;;;;;6.70;4.63;;;28.60;99.90;;;;;;4986254;28;20109;-56
2023/09/16 12:24:45;;;;;;;7.05;5.03;;;28.40;99.90;;;;;;4986478;28;20524;-55
2023/09/16 12:27:11;;;;;;;4.70;4.20;;;28.30;99.90;;;;;;4988063;28;20046;-57
2023/09/16 12:29:37;;;;;;;5.00;4.25;;;28.40;99.90;;;;;;4984193;28;20168;-55
2023/09/16 12:32:10;;;;;;;5.53;4.38;;;28.70;99.90;;;;;;4982920;28;20496;-57
2023/09/16 12:34:35;;;;;;;7.30;4.85;;;28.50;99.90;;;;;;4981522;28;20666;-57
2023/09/16 12:37:02;;;;;;;6.07;4.63;;;28.50;99.90;;;;;;4987590;28;20026;-56
2023/09/16 12:39:29;;;;;;;5.22;4.50;;;28.60;99.90;;;;;;4985663;28;20026;-58